Ammansville, Texas
Current Conditions -  °F | °C
As of 3:10 PM on Wednesday 26 Nov 2014 (Local Time) from K3T5 Reporting Station
Clear Clear  
Wind Chill: 73°   Ceiling: Unl
Heat Index: 73°   Visibility: 10mi
Dew Point: 39°   Wind: 8mph
Humidity: 29%   Direction: 210°SSW
Pressure: 30.16"   Gusts: NA
Location:  29.8569°N, 96.9311°W
Report Text: K3T5 262110Z AUTO 21007KT 10SM CLR 23/04 A3016 RMK AO2 T02250037
Loading
Personal Weather Stations






























Interactive Weather Map New forecast layout! Learn more

10-Day Weather Forecast

Advertisements
Track Severe Weather on mobile